sensor_id;sensor_type;location;lat;lon;timestamp;P1;durP1;ratioP1;P2;durP2;ratioP2
54557;SDS011;40452;50.080;20.040;2023-04-03T03:03:00;1.73;;;1.20;;
54557;SDS011;40452;50.080;20.040;2023-04-03T03:05:26;2.65;;;1.20;;
54557;SDS011;40452;50.080;20.040;2023-04-03T03:07:52;1.90;;;1.10;;
54557;SDS011;40452;50.080;20.040;2023-04-03T03:10:18;2.05;;;1.15;;
54557;SDS011;40452;50.080;20.040;2023-04-03T03:12:44;1.35;;;1.00;;
54557;SDS011;40452;50.080;20.040;2023-04-03T03:15:10;2.10;;;1.23;;
54557;SDS011;40452;50.080;20.040;2023-04-03T03:17:35;3.08;;;1.33;;
54557;SDS011;40452;50.080;20.040;2023-04-03T03:20:01;1.95;;;1.00;;
54557;SDS011;40452;50.080;20.040;2023-04-03T03:22:30;2.20;;;1.10;;
54557;SDS011;40452;50.080;20.040;2023-04-03T03:24:57;1.17;;;0.90;;
54557;SDS011;40452;50.080;20.040;2023-04-03T03:27:22;1.40;;;0.80;;
54557;SDS011;40452;50.080;20.040;2023-04-03T03:29:49;1.65;;;0.93;;
54557;SDS011;40452;50.080;20.040;2023-04-03T03:32:14;2.65;;;1.15;;
54557;SDS011;40452;50.080;20.040;2023-04-03T03:34:40;2.40;;;1.20;;
54557;SDS011;40452;50.080;20.040;2023-04-03T03:37:05;1.88;;;0.90;;
54557;SDS011;40452;50.080;20.040;2023-04-03T03:39:31;5.95;;;1.33;;
54557;SDS011;40452;50.080;20.040;2023-04-03T03:41:57;1.55;;;1.00;;
54557;SDS011;40452;50.080;20.040;2023-04-03T03:44:22;1.77;;;0.90;;
54557;SDS011;40452;50.080;20.040;2023-04-03T03:46:48;3.67;;;1.17;;
54557;SDS011;40452;50.080;20.040;2023-04-03T03:49:13;1.80;;;1.25;;
54557;SDS011;40452;50.080;20.040;2023-04-03T03:51:39;2.38;;;1.10;;
54557;SDS011;40452;50.080;20.040;2023-04-03T03:54:05;2.30;;;1.13;;
54557;SDS011;40452;50.080;20.040;2023-04-03T03:56:31;3.30;;;1.10;;
54557;SDS011;40452;50.080;20.040;2023-04-03T03:58:57;2.05;;;1.20;;
54557;SDS011;40452;50.080;20.040;2023-04-03T04:01:23;1.70;;;1.30;;
54557;SDS011;40452;50.080;20.040;2023-04-03T04:03:49;2.17;;;1.50;;
54557;SDS011;40452;50.080;20.040;2023-04-03T04:06:15;2.45;;;1.67;;
54557;SDS011;40452;50.080;20.040;2023-04-03T04:08:40;2.75;;;1.65;;
54557;SDS011;40452;50.080;20.040;2023-04-03T04:11:06;3.08;;;2.00;;
54557;SDS011;40452;50.080;20.040;2023-04-03T04:13:32;2.78;;;1.80;;
54557;SDS011;40452;50.080;20.040;2023-04-03T04:15:58;3.78;;;2.28;;
54557;SDS011;40452;50.080;20.040;2023-04-03T04:18:24;3.40;;;1.83;;
54557;SDS011;40452;50.080;20.040;2023-04-03T04:20:50;4.53;;;2.00;;
54557;SDS011;40452;50.080;20.040;2023-04-03T04:23:16;2.85;;;1.80;;
54557;SDS011;40452;50.080;20.040;2023-04-03T04:25:46;4.00;;;1.92;;
54557;SDS011;40452;50.080;20.040;2023-04-03T04:28:12;3.38;;;2.03;;
54557;SDS011;40452;50.080;20.040;2023-04-03T04:30:37;3.63;;;2.08;;
54557;SDS011;40452;50.080;20.040;2023-04-03T04:33:03;3.30;;;1.95;;
54557;SDS011;40452;50.080;20.040;2023-04-03T04:35:29;4.43;;;2.20;;
54557;SDS011;40452;50.080;20.040;2023-04-03T04:37:54;4.05;;;2.05;;
54557;SDS011;40452;50.080;20.040;2023-04-03T04:40:20;3.33;;;2.15;;
54557;SDS011;40452;50.080;20.040;2023-04-03T04:42:46;4.47;;;2.45;;
54557;SDS011;40452;50.080;20.040;2023-04-03T04:45:12;6.10;;;2.47;;
54557;SDS011;40452;50.080;20.040;2023-04-03T04:47:37;3.35;;;2.20;;
54557;SDS011;40452;50.080;20.040;2023-04-03T04:50:03;6.43;;;2.92;;
54557;SDS011;40452;50.080;20.040;2023-04-03T04:52:29;5.03;;;2.40;;
54557;SDS011;40452;50.080;20.040;2023-04-03T04:54:55;4.53;;;2.42;;
54557;SDS011;40452;50.080;20.040;2023-04-03T04:57:20;5.25;;;2.65;;
54557;SDS011;40452;50.080;20.040;2023-04-03T04:59:46;4.25;;;2.25;;
54557;SDS011;40452;50.080;20.040;2023-04-03T05:02:12;3.35;;;2.00;;
54557;SDS011;40452;50.080;20.040;2023-04-03T05:04:37;3.47;;;2.00;;
54557;SDS011;40452;50.080;20.040;2023-04-03T05:07:03;4.53;;;1.95;;
54557;SDS011;40452;50.080;20.040;2023-04-03T05:09:28;4.07;;;2.20;;
54557;SDS011;40452;50.080;20.040;2023-04-03T05:11:54;3.90;;;2.03;;
54557;SDS011;40452;50.080;20.040;2023-04-03T05:14:21;4.38;;;1.90;;
54557;SDS011;40452;50.080;20.040;2023-04-03T05:16:46;3.60;;;2.05;;
54557;SDS011;40452;50.080;20.040;2023-04-03T05:19:12;3.67;;;1.80;;
54557;SDS011;40452;50.080;20.040;2023-04-03T05:21:38;2.53;;;1.73;;
54557;SDS011;40452;50.080;20.040;2023-04-03T05:24:03;3.13;;;1.90;;
54557;SDS011;40452;50.080;20.040;2023-04-03T05:26:30;2.25;;;1.58;;
54557;SDS011;40452;50.080;20.040;2023-04-03T05:28:56;3.58;;;2.30;;
54557;SDS011;40452;50.080;20.040;2023-04-03T05:31:22;2.72;;;1.70;;
54557;SDS011;40452;50.080;20.040;2023-04-03T05:33:48;2.42;;;1.65;;
54557;SDS011;40452;50.080;20.040;2023-04-03T05:36:14;3.33;;;1.90;;
54557;SDS011;40452;50.080;20.040;2023-04-03T14:55:18;5.03;;;2.20;;
54557;SDS011;40452;50.080;20.040;2023-04-03T14:57:45;3.65;;;1.88;;
54557;SDS011;40452;50.080;20.040;2023-04-03T15:00:15;4.30;;;2.13;;
54557;SDS011;40452;50.080;20.040;2023-04-03T15:02:42;2.85;;;1.63;;
54557;SDS011;40452;50.080;20.040;2023-04-03T15:05:09;6.00;;;2.28;;
54557;SDS011;40452;50.080;20.040;2023-04-03T15:07:43;3.58;;;1.80;;
54557;SDS011;40452;50.080;20.040;2023-04-03T15:10:20;4.40;;;1.85;;
54557;SDS011;40452;50.080;20.040;2023-04-03T15:12:47;6.47;;;1.90;;
54557;SDS011;40452;50.080;20.040;2023-04-03T15:15:13;8.88;;;2.08;;
54557;SDS011;40452;50.080;20.040;2023-04-03T15:17:39;2.63;;;1.52;;
54557;SDS011;40452;50.080;20.040;2023-04-03T15:20:11;4.57;;;1.70;;
54557;SDS011;40452;50.080;20.040;2023-04-03T15:22:41;7.10;;;1.73;;
54557;SDS011;40452;50.080;20.040;2023-04-03T15:25:08;4.13;;;1.58;;
54557;SDS011;40452;50.080;20.040;2023-04-03T15:27:35;5.30;;;1.80;;
54557;SDS011;40452;50.080;20.040;2023-04-03T15:30:01;3.15;;;1.60;;
54557;SDS011;40452;50.080;20.040;2023-04-03T15:32:27;6.88;;;1.98;;
54557;SDS011;40452;50.080;20.040;2023-04-03T15:34:54;5.85;;;1.80;;
54557;SDS011;40452;50.080;20.040;2023-04-03T15:37:19;6.63;;;1.83;;
54557;SDS011;40452;50.080;20.040;2023-04-03T15:39:45;2.85;;;1.65;;
54557;SDS011;40452;50.080;20.040;2023-04-03T15:42:11;5.35;;;1.85;;
54557;SDS011;40452;50.080;20.040;2023-04-03T15:44:37;3.55;;;1.65;;
54557;SDS011;40452;50.080;20.040;2023-04-03T15:47:03;3.15;;;1.63;;
54557;SDS011;40452;50.080;20.040;2023-04-03T15:49:28;3.40;;;1.70;;
54557;SDS011;40452;50.080;20.040;2023-04-03T15:51:55;3.50;;;1.58;;
54557;SDS011;40452;50.080;20.040;2023-04-03T15:54:21;2.92;;;1.90;;
54557;SDS011;40452;50.080;20.040;2023-04-03T15:56:48;3.15;;;1.73;;
54557;SDS011;40452;50.080;20.040;2023-04-03T15:59:14;3.63;;;1.67;;
54557;SDS011;40452;50.080;20.040;2023-04-03T16:01:40;4.05;;;1.90;;
54557;SDS011;40452;50.080;20.040;2023-04-03T16:04:07;3.00;;;1.50;;
54557;SDS011;40452;50.080;20.040;2023-04-03T16:06:33;4.25;;;2.00;;
54557;SDS011;40452;50.080;20.040;2023-04-03T16:08:59;4.15;;;1.80;;
54557;SDS011;40452;50.080;20.040;2023-04-03T16:11:25;4.82;;;1.98;;
54557;SDS011;40452;50.080;20.040;2023-04-03T16:13:52;3.60;;;1.63;;
54557;SDS011;40452;50.080;20.040;2023-04-03T16:16:18;2.55;;;1.77;;
54557;SDS011;40452;50.080;20.040;2023-04-03T16:18:44;3.85;;;1.98;;
54557;SDS011;40452;50.080;20.040;2023-04-03T16:21:11;4.45;;;2.10;;
54557;SDS011;40452;50.080;20.040;2023-04-03T16:23:38;3.30;;;2.15;;
54557;SDS011;40452;50.080;20.040;2023-04-03T16:26:05;3.90;;;2.33;;
54557;SDS011;40452;50.080;20.040;2023-04-03T16:28:30;4.50;;;2.75;;
54557;SDS011;40452;50.080;20.040;2023-04-03T16:30:56;5.15;;;2.53;;
54557;SDS011;40452;50.080;20.040;2023-04-03T16:33:22;4.78;;;2.70;;
54557;SDS011;40452;50.080;20.040;2023-04-03T16:35:49;5.80;;;3.00;;
54557;SDS011;40452;50.080;20.040;2023-04-03T16:38:15;4.57;;;2.67;;
54557;SDS011;40452;50.080;20.040;2023-04-03T16:40:41;7.88;;;2.88;;
54557;SDS011;40452;50.080;20.040;2023-04-03T16:43:07;7.53;;;2.92;;
54557;SDS011;40452;50.080;20.040;2023-04-03T16:45:32;7.10;;;3.15;;
54557;SDS011;40452;50.080;20.040;2023-04-03T16:47:58;4.97;;;3.00;;
54557;SDS011;40452;50.080;20.040;2023-04-03T16:50:24;7.75;;;2.85;;
54557;SDS011;40452;50.080;20.040;2023-04-03T16:52:49;7.20;;;3.53;;
54557;SDS011;40452;50.080;20.040;2023-04-03T16:55:15;8.73;;;3.30;;
54557;SDS011;40452;50.080;20.040;2023-04-03T16:57:41;6.78;;;3.30;;
54557;SDS011;40452;50.080;20.040;2023-04-03T17:00:07;5.47;;;3.28;;
54557;SDS011;40452;50.080;20.040;2023-04-03T17:02:33;5.40;;;3.08;;
54557;SDS011;40452;50.080;20.040;2023-04-03T17:04:59;4.93;;;3.10;;
54557;SDS011;40452;50.080;20.040;2023-04-03T17:07:25;8.55;;;3.50;;
54557;SDS011;40452;50.080;20.040;2023-04-03T17:09:51;6.20;;;3.00;;
54557;SDS011;40452;50.080;20.040;2023-04-03T17:12:18;7.00;;;2.78;;
54557;SDS011;40452;50.080;20.040;2023-04-03T17:14:44;6.07;;;2.90;;
54557;SDS011;40452;50.080;20.040;2023-04-03T17:17:11;6.10;;;2.78;;
54557;SDS011;40452;50.080;20.040;2023-04-03T17:19:38;7.50;;;3.03;;
54557;SDS011;40452;50.080;20.040;2023-04-03T17:22:06;5.68;;;2.78;;
54557;SDS011;40452;50.080;20.040;2023-04-03T17:24:33;4.65;;;2.20;;
54557;SDS011;40452;50.080;20.040;2023-04-03T17:26:59;6.10;;;2.50;;
54557;SDS011;40452;50.080;20.040;2023-04-03T17:29:25;4.50;;;2.50;;
54557;SDS011;40452;50.080;20.040;2023-04-03T17:31:50;6.10;;;2.50;;
54557;SDS011;40452;50.080;20.040;2023-04-03T17:34:16;4.32;;;2.38;;
54557;SDS011;40452;50.080;20.040;2023-04-03T17:36:42;5.57;;;2.78;;
54557;SDS011;40452;50.080;20.040;2023-04-03T17:39:07;6.90;;;2.70;;
54557;SDS011;40452;50.080;20.040;2023-04-03T17:41:33;8.32;;;3.63;;
54557;SDS011;40452;50.080;20.040;2023-04-03T17:43:59;5.47;;;3.28;;
54557;SDS011;40452;50.080;20.040;2023-04-03T17:46:25;7.03;;;3.47;;
54557;SDS011;40452;50.080;20.040;2023-04-03T17:48:51;6.30;;;3.17;;
54557;SDS011;40452;50.080;20.040;2023-04-03T17:51:20;6.05;;;3.35;;
54557;SDS011;40452;50.080;20.040;2023-04-03T17:53:49;6.10;;;3.33;;
54557;SDS011;40452;50.080;20.040;2023-04-03T17:56:16;6.00;;;3.03;;
54557;SDS011;40452;50.080;20.040;2023-04-03T17:58:49;6.22;;;3.58;;
54557;SDS011;40452;50.080;20.040;2023-04-03T18:01:28;6.90;;;3.60;;
54557;SDS011;40452;50.080;20.040;2023-04-03T18:03:57;4.95;;;3.60;;
54557;SDS011;40452;50.080;20.040;2023-04-03T18:06:58;8.98;;;4.32;;
54557;SDS011;40452;50.080;20.040;2023-04-03T18:09:20;5.50;;;3.70;;
54557;SDS011;40452;50.080;20.040;2023-04-03T18:11:49;5.60;;;3.67;;
54557;SDS011;40452;50.080;20.040;2023-04-03T18:14:16;8.27;;;3.90;;
54557;SDS011;40452;50.080;20.040;2023-04-03T18:16:45;6.97;;;4.15;;
54557;SDS011;40452;50.080;20.040;2023-04-03T18:19:11;6.85;;;4.15;;
54557;SDS011;40452;50.080;20.040;2023-04-03T18:21:39;10.43;;;4.18;;
54557;SDS011;40452;50.080;20.040;2023-04-03T18:24:10;7.75;;;3.83;;
54557;SDS011;40452;50.080;20.040;2023-04-03T18:26:47;6.80;;;4.43;;
54557;SDS011;40452;50.080;20.040;2023-04-03T18:29:17;5.90;;;4.45;;
54557;SDS011;40452;50.080;20.040;2023-04-03T18:31:44;10.05;;;4.88;;
54557;SDS011;40452;50.080;20.040;2023-04-03T18:34:12;30.38;;;5.63;;
54557;SDS011;40452;50.080;20.040;2023-04-03T18:36:38;8.35;;;4.55;;
54557;SDS011;40452;50.080;20.040;2023-04-03T18:39:04;6.65;;;4.30;;
54557;SDS011;40452;50.080;20.040;2023-04-03T18:41:32;9.73;;;5.13;;
54557;SDS011;40452;50.080;20.040;2023-04-03T18:44:02;10.52;;;5.13;;
54557;SDS011;40452;50.080;20.040;2023-04-03T18:46:30;8.05;;;5.15;;
54557;SDS011;40452;50.080;20.040;2023-04-03T18:48:56;10.52;;;4.90;;
54557;SDS011;40452;50.080;20.040;2023-04-03T18:51:23;12.35;;;5.20;;
54557;SDS011;40452;50.080;20.040;2023-04-03T18:53:49;8.18;;;5.00;;
54557;SDS011;40452;50.080;20.040;2023-04-03T18:56:15;8.35;;;4.63;;
54557;SDS011;40452;50.080;20.040;2023-04-03T18:58:40;7.88;;;5.10;;
54557;SDS011;40452;50.080;20.040;2023-04-03T19:01:06;9.77;;;5.20;;
54557;SDS011;40452;50.080;20.040;2023-04-03T19:03:32;9.30;;;5.40;;
54557;SDS011;40452;50.080;20.040;2023-04-03T19:06:00;11.75;;;5.45;;
54557;SDS011;40452;50.080;20.040;2023-04-03T19:08:26;8.10;;;5.45;;
54557;SDS011;40452;50.080;20.040;2023-04-03T19:10:52;8.93;;;5.35;;
54557;SDS011;40452;50.080;20.040;2023-04-03T19:13:18;9.27;;;5.90;;
54557;SDS011;40452;50.080;20.040;2023-04-03T19:15:43;11.63;;;6.15;;
54557;SDS011;40452;50.080;20.040;2023-04-03T19:18:10;8.63;;;5.78;;
54557;SDS011;40452;50.080;20.040;2023-04-03T19:20:35;9.55;;;5.32;;
54557;SDS011;40452;50.080;20.040;2023-04-03T19:23:01;12.40;;;6.30;;
